Time;durP1;ratioP1;P1;durP2;ratioP2;P2;SDS_P1;SDS_P2;PMS_P1;PMS_P2;Temp;Humidity;BMP_temperature;BMP_pressure;BME280_temperature;BME280_humidity;BME280_pressure;Samples;Min_cycle;Max_cycle;Signal;HPM_P1;HPM_P2
2021/08/18 00:01:58;;;;;;;0.90;0.77;;;;;;;;;;5015526;28;20441;-77
2021/08/18 00:04:26;;;;;;;0.70;0.70;;;;;;;;;;5015612;28;20064;-77
2021/08/18 00:06:54;;;;;;;0.90;0.70;;;;;;;;;;5001564;28;20037;-77
2021/08/18 00:09:19;;;;;;;2.75;1.00;;;;;;;;;;5013727;28;20368;-77
2021/08/18 00:11:44;;;;;;;4.30;1.00;;;;;;;;;;5015118;28;20025;-78
2021/08/18 00:14:14;;;;;;;1.47;0.80;;;;;;;;;;5014548;28;20285;-78
2021/08/18 00:16:39;;;;;;;1.35;0.63;;;;;;;;;;4997536;28;20755;-78
2021/08/18 00:19:04;;;;;;;1.98;0.70;;;;;;;;;;5014630;28;20030;-78
2021/08/18 00:21:32;;;;;;;0.68;0.68;;;;;;;;;;5014912;28;20022;-77
2021/08/18 00:23:59;;;;;;;0.63;0.63;;;;;;;;;;5015142;28;20073;-78
2021/08/18 00:26:27;;;;;;;1.08;0.70;;;;;;;;;;4997866;28;20385;-79
2021/08/18 00:28:55;;;;;;;1.45;0.80;;;;;;;;;;5032213;28;20133;-80
2021/08/18 00:31:21;;;;;;;1.10;1.00;;;;;;;;;;5017222;28;20025;-80
2021/08/18 00:33:47;;;;;;;1.92;0.88;;;;;;;;;;5018072;28;20048;-78
2021/08/18 00:36:12;;;;;;;1.95;0.98;;;;;;;;;;5014560;28;20022;-78
2021/08/18 00:38:40;;;;;;;0.98;0.98;;;;;;;;;;5014371;28;20456;-78
2021/08/18 00:41:05;;;;;;;1.02;0.93;;;;;;;;;;5014756;28;20028;-78
2021/08/18 00:43:30;;;;;;;2.13;0.88;;;;;;;;;;5013912;28;20022;-78
2021/08/18 00:45:58;;;;;;;0.80;0.80;;;;;;;;;;5014818;28;20017;-78
2021/08/18 00:48:23;;;;;;;2.17;0.75;;;;;;;;;;5014712;28;20053;-78
2021/08/18 00:50:51;;;;;;;0.70;0.70;;;;;;;;;;5014182;28;20045;-78
2021/08/18 00:53:16;;;;;;;0.70;0.70;;;;;;;;;;4997152;28;20068;-78
2021/08/18 00:55:41;;;;;;;4.00;0.80;;;;;;;;;;5013959;28;20022;-78
2021/08/18 00:58:12;;;;;;;0.75;0.60;;;;;;;;;;5024435;28;20745;-78
2021/08/18 01:00:39;;;;;;;0.80;0.80;;;;;;;;;;5023042;28;20022;-78
2021/08/18 01:03:04;;;;;;;0.70;0.70;;;;;;;;;;4977327;28;20032;-78
2021/08/18 01:05:30;;;;;;;0.87;0.80;;;;;;;;;;4996002;28;20101;-78
2021/08/18 01:07:59;;;;;;;0.88;0.60;;;;;;;;;;5000723;28;20370;-78
2021/08/18 01:10:25;;;;;;;1.08;0.80;;;;;;;;;;5033493;28;20021;-78
2021/08/18 01:12:53;;;;;;;7.10;1.00;;;;;;;;;;5030050;28;20065;-78
2021/08/18 01:15:20;;;;;;;2.53;1.00;;;;;;;;;;5013372;28;20025;-79
2021/08/18 01:17:46;;;;;;;1.95;1.20;;;;;;;;;;5013035;28;20032;-79
2021/08/18 01:20:15;;;;;;;3.78;1.45;;;;;;;;;;5013977;28;20105;-78
2021/08/18 01:22:41;;;;;;;6.90;2.13;;;;;;;;;;5013269;28;20021;-79
2021/08/18 01:25:07;;;;;;;5.53;2.10;;;;;;;;;;4996769;28;20022;-79
2021/08/18 01:27:32;;;;;;;3.22;2.05;;;;;;;;;;5013619;28;20018;-78
2021/08/18 01:30:00;;;;;;;2.30;2.10;;;;;;;;;;5014096;28;20034;-79
2021/08/18 01:32:25;;;;;;;2.40;1.75;;;;;;;;;;5013863;28;20421;-79
2021/08/18 01:34:50;;;;;;;2.75;1.60;;;;;;;;;;5014141;28;20093;-79
2021/08/18 01:37:18;;;;;;;2.95;1.63;;;;;;;;;;5013316;28;20030;-79
2021/08/18 01:39:43;;;;;;;2.95;2.38;;;;;;;;;;5013986;28;20060;-79
2021/08/18 01:42:08;;;;;;;2.17;1.98;;;;;;;;;;5002198;28;20416;-79
2021/08/18 01:44:33;;;;;;;2.00;1.70;;;;;;;;;;5033266;28;20021;-79
2021/08/18 01:47:01;;;;;;;3.53;2.05;;;;;;;;;;5032941;28;20021;-79
2021/08/18 01:49:29;;;;;;;3.05;2.03;;;;;;;;;;5023709;28;20033;-79
2021/08/18 01:51:56;;;;;;;2.42;1.90;;;;;;;;;;5012607;28;20025;-79
2021/08/18 01:54:24;;;;;;;3.05;1.98;;;;;;;;;;5013367;28;20080;-80
2021/08/18 01:56:51;;;;;;;2.97;1.77;;;;;;;;;;5003237;28;20018;-81
2021/08/18 01:59:19;;;;;;;2.03;1.75;;;;;;;;;;4976959;28;20457;-79
2021/08/18 02:01:44;;;;;;;1.75;1.65;;;;;;;;;;5010511;28;20079;-79
2021/08/18 02:04:12;;;;;;;3.10;1.90;;;;;;;;;;5033184;28;20021;-79
2021/08/18 02:06:39;;;;;;;2.88;1.70;;;;;;;;;;5025814;28;20276;-79
2021/08/18 02:09:04;;;;;;;1.95;1.85;;;;;;;;;;5013515;28;20108;-80
2021/08/18 02:11:29;;;;;;;3.50;1.80;;;;;;;;;;5013709;28;20152;-80
2021/08/18 02:13:55;;;;;;;3.97;1.80;;;;;;;;;;4995425;28;20109;-77
2021/08/18 02:16:25;;;;;;;2.65;1.80;;;;;;;;;;5013498;28;20415;-77
2021/08/18 02:18:52;;;;;;;2.10;1.83;;;;;;;;;;4996289;28;20468;-77
2021/08/18 02:21:17;;;;;;;2.08;1.73;;;;;;;;;;5030111;28;20036;-78
2021/08/18 02:23:43;;;;;;;4.53;2.00;;;;;;;;;;5037044;28;20021;-78
2021/08/18 02:26:08;;;;;;;2.65;1.75;;;;;;;;;;5028578;28;20026;-78
2021/08/18 02:28:35;;;;;;;3.83;2.23;;;;;;;;;;5017195;28;20499;-78
2021/08/18 02:31:03;;;;;;;3.42;2.03;;;;;;;;;;5016422;28;20280;-78
2021/08/18 02:33:30;;;;;;;2.67;2.25;;;;;;;;;;5016520;28;20333;-78
2021/08/18 02:35:56;;;;;;;3.97;2.63;;;;;;;;;;5017035;28;20034;-78
2021/08/18 02:38:21;;;;;;;3.13;2.85;;;;;;;;;;5017329;28;20029;-78
2021/08/18 02:40:48;;;;;;;3.58;3.22;;;;;;;;;;5017705;28;20022;-78
2021/08/18 02:43:13;;;;;;;3.83;3.38;;;;;;;;;;5016282;28;20014;-78
2021/08/18 02:45:41;;;;;;;4.07;3.15;;;;;;;;;;5016747;28;20017;-78
2021/08/18 02:48:07;;;;;;;3.47;3.17;;;;;;;;;;5016752;28;20109;-79
2021/08/18 02:50:32;;;;;;;3.53;3.10;;;;;;;;;;4997389;28;20105;-78
2021/08/18 02:52:57;;;;;;;4.05;3.60;;;;;;;;;;4997218;28;20037;-78
2021/08/18 02:55:22;;;;;;;3.55;3.25;;;;;;;;;;4997310;28;20105;-78
2021/08/18 02:57:48;;;;;;;3.67;3.00;;;;;;;;;;5005294;28;20368;-78
2021/08/18 03:00:16;;;;;;;8.75;3.70;;;;;;;;;;5016516;28;20028;-78
2021/08/18 03:02:41;;;;;;;3.88;3.25;;;;;;;;;;5015532;28;20552;-78
2021/08/18 03:05:09;;;;;;;3.72;3.30;;;;;;;;;;5016126;28;20049;-78
2021/08/18 03:07:36;;;;;;;3.58;3.28;;;;;;;;;;5015946;28;20356;-79
2021/08/18 03:10:04;;;;;;;3.63;3.15;;;;;;;;;;5016464;28;20026;-78
2021/08/18 03:12:29;;;;;;;6.35;3.45;;;;;;;;;;5016432;28;20022;-81
2021/08/18 03:14:54;;;;;;;3.50;3.20;;;;;;;;;;5015771;28;20368;-81
2021/08/18 03:17:22;;;;;;;2.63;2.42;;;;;;;;;;5016563;28;20280;-81
2021/08/18 03:19:49;;;;;;;3.20;2.60;;;;;;;;;;5016348;28;20022;-81
2021/08/18 03:22:19;;;;;;;3.85;3.30;;;;;;;;;;4999158;28;20033;-80
2021/08/18 03:24:44;;;;;;;3.92;2.88;;;;;;;;;;5015486;28;20029;-80
2021/08/18 03:27:10;;;;;;;3.13;2.83;;;;;;;;;;5016006;28;20040;-80
2021/08/18 03:29:37;;;;;;;3.60;2.35;;;;;;;;;;5016146;28;20135;-81
2021/08/18 03:32:05;;;;;;;3.97;2.42;;;;;;;;;;5017866;28;20087;-80
2021/08/18 03:34:32;;;;;;;2.65;2.10;;;;;;;;;;5035512;28;20340;-80
2021/08/18 03:37:00;;;;;;;2.40;2.20;;;;;;;;;;5033597;28;20460;-82
2021/08/18 03:39:25;;;;;;;1.90;1.80;;;;;;;;;;5015779;28;20018;-82
2021/08/18 03:41:50;;;;;;;2.43;1.93;;;;;;;;;;5015751;28;20028;-82
2021/08/18 03:44:15;;;;;;;2.58;1.60;;;;;;;;;;5015150;28;20269;-81
2021/08/18 03:46:41;;;;;;;1.98;1.80;;;;;;;;;;4998370;28;20036;-81
2021/08/18 03:49:08;;;;;;;1.83;1.70;;;;;;;;;;5015797;28;20116;-81
2021/08/18 03:51:33;;;;;;;3.47;1.55;;;;;;;;;;4997931;28;20061;-81
2021/08/18 03:53:59;;;;;;;1.85;1.40;;;;;;;;;;5015515;28;20060;-81
2021/08/18 03:56:24;;;;;;;1.97;1.60;;;;;;;;;;5015622;28;20476;-81
2021/08/18 03:58:51;;;;;;;1.63;1.40;;;;;;;;;;5014726;28;20272;-81
2021/08/18 04:01:16;;;;;;;1.48;1.38;;;;;;;;;;4997666;28;20323;-80
2021/08/18 04:03:42;;;;;;;4.18;1.38;;;;;;;;;;5014868;28;20022;-81
2021/08/18 04:06:09;;;;;;;1.38;1.27;;;;;;;;;;5015827;28;20087;-81
2021/08/18 04:08:35;;;;;;;2.85;1.60;;;;;;;;;;5002931;28;20101;-80
2021/08/18 04:11:04;;;;;;;1.35;1.25;;;;;;;;;;4995830;28;20104;-80
2021/08/18 04:13:32;;;;;;;1.50;1.40;;;;;;;;;;5005901;28;20022;-78
2021/08/18 04:15:57;;;;;;;1.40;1.30;;;;;;;;;;5015256;28;20455;-79
2021/08/18 04:18:22;;;;;;;1.20;1.10;;;;;;;;;;5015172;28;20108;-78
2021/08/18 04:20:47;;;;;;;1.40;1.30;;;;;;;;;;5015335;28;20376;-78
2021/08/18 04:23:17;;;;;;;1.20;1.10;;;;;;;;;;5014776;28;20058;-78
2021/08/18 04:25:43;;;;;;;1.83;1.35;;;;;;;;;;5014952;28;20356;-78
2021/08/18 04:28:10;;;;;;;1.40;1.27;;;;;;;;;;5014356;28;20057;-79
2021/08/18 04:30:35;;;;;;;1.33;1.20;;;;;;;;;;5014944;28;20466;-79
2021/08/18 04:33:01;;;;;;;2.03;1.20;;;;;;;;;;5014152;28;20030;-79
2021/08/18 04:35:26;;;;;;;1.30;1.20;;;;;;;;;;4997820;28;20335;-79
2021/08/18 04:37:53;;;;;;;1.98;1.58;;;;;;;;;;5014894;28;20038;-79
2021/08/18 04:40:21;;;;;;;1.30;1.20;;;;;;;;;;4994914;28;20018;-79
2021/08/18 04:42:46;;;;;;;2.50;1.70;;;;;;;;;;4998188;28;20025;-79
2021/08/18 04:45:15;;;;;;;3.00;1.70;;;;;;;;;;4994656;28;20085;-81
2021/08/18 04:47:43;;;;;;;2.70;1.60;;;;;;;;;;5004507;28;20435;-77
2021/08/18 04:50:09;;;;;;;5.18;1.60;;;;;;;;;;5013513;28;20061;-76
2021/08/18 04:52:34;;;;;;;2.33;1.88;;;;;;;;;;5013492;28;20022;-76
2021/08/18 04:54:59;;;;;;;2.65;2.05;;;;;;;;;;5014049;28;20026;-76
2021/08/18 04:57:27;;;;;;;2.65;2.13;;;;;;;;;;5013704;28;20361;-76
2021/08/18 04:59:52;;;;;;;2.58;2.00;;;;;;;;;;5010140;28;20506;-76
2021/08/18 05:02:20;;;;;;;2.10;1.90;;;;;;;;;;5013011;28;20049;-76
2021/08/18 05:04:47;;;;;;;3.67;2.03;;;;;;;;;;5013975;28;20113;-76
2021/08/18 05:07:12;;;;;;;3.20;1.75;;;;;;;;;;5013580;28;20071;-75
2021/08/18 05:09:40;;;;;;;2.55;1.60;;;;;;;;;;5012461;28;20089;-74
2021/08/18 05:12:05;;;;;;;2.28;1.65;;;;;;;;;;5013092;28;20029;-75
2021/08/18 05:14:33;;;;;;;2.30;1.80;;;;;;;;;;5013851;28;20013;-76
2021/08/18 05:16:58;;;;;;;2.13;1.85;;;;;;;;;;5013327;28;20045;-84
2021/08/18 05:19:23;;;;;;;2.40;1.83;;;;;;;;;;5013788;28;20014;-76
2021/08/18 05:21:49;;;;;;;2.03;1.60;;;;;;;;;;5009356;28;20249;-77
2021/08/18 05:24:16;;;;;;;5.32;1.50;;;;;;;;;;4995038;28;20249;-76
2021/08/18 05:26:44;;;;;;;2.55;2.10;;;;;;;;;;5013605;28;20099;-77
2021/08/18 05:29:09;;;;;;;2.28;2.10;;;;;;;;;;5013332;28;20037;-74
2021/08/18 05:31:37;;;;;;;2.83;2.63;;;;;;;;;;5013627;28;20026;-74
2021/08/18 05:34:04;;;;;;;3.03;2.72;;;;;;;;;;5013487;28;20050;-77
2021/08/18 05:36:30;;;;;;;4.50;3.15;;;;;;;;;;4996006;28;20353;-77
2021/08/18 05:38:55;;;;;;;3.95;3.33;;;;;;;;;;5013326;28;20025;-77
2021/08/18 05:41:20;;;;;;;4.40;4.00;;;;;;;;;;5012114;28;20090;-79
2021/08/18 05:43:45;;;;;;;5.25;3.40;;;;;;;;;;5008469;28;20257;-75
2021/08/18 05:46:13;;;;;;;4.63;3.50;;;;;;;;;;4994658;28;20014;-76
2021/08/18 05:48:38;;;;;;;4.15;3.60;;;;;;;;;;5011785;28;20453;-74
2021/08/18 05:51:07;;;;;;;5.37;4.87;;;;;;;;;;5011128;28;20037;-77
2021/08/18 05:53:35;;;;;;;6.03;5.43;;;;;;;;;;4994214;28;20255;-77
2021/08/18 05:56:00;;;;;;;9.82;5.40;;;;;;;;;;4999674;28;20464;-77
2021/08/18 05:58:30;;;;;;;7.20;6.50;;;;;;;;;;5000617;28;20104;-77
2021/08/18 06:00:56;;;;;;;7.15;6.00;;;;;;;;;;5010067;28;20308;-77
2021/08/18 06:03:21;;;;;;;7.20;6.50;;;;;;;;;;5020331;28;20065;-76
2021/08/18 06:05:49;;;;;;;7.50;6.70;;;;;;;;;;5020193;28;20389;-76
2021/08/18 06:08:21;;;;;;;8.65;7.85;;;;;;;;;;4983427;28;20276;-77
2021/08/18 06:10:46;;;;;;;9.18;7.80;;;;;;;;;;5000026;28;20030;-76
2021/08/18 06:13:12;;;;;;;8.60;7.27;;;;;;;;;;5000506;28;20034;-84
2021/08/18 06:15:40;;;;;;;7.70;6.90;;;;;;;;;;5000469;28;20272;-84
2021/08/18 06:18:05;;;;;;;7.72;6.88;;;;;;;;;;4999942;28;20023;-87
2021/08/18 06:20:31;;;;;;;8.85;6.80;;;;;;;;;;5000497;28;20076;-88
2021/08/18 06:22:56;;;;;;;7.40;6.70;;;;;;;;;;5000678;28;20050;-83
2021/08/18 06:25:24;;;;;;;7.07;6.15;;;;;;;;;;5000666;28;20038;-87
2021/08/18 06:27:50;;;;;;;9.45;6.15;;;;;;;;;;4999978;28;20050;-80
2021/08/18 06:30:18;;;;;;;8.32;5.93;;;;;;;;;;5000400;28;20027;-85
2021/08/18 06:32:45;;;;;;;6.53;5.70;;;;;;;;;;5000105;28;20030;-90
2021/08/18 06:35:12;;;;;;;5.28;4.75;;;;;;;;;;4999014;28;20022;-88
2021/08/18 06:37:39;;;;;;;6.30;4.93;;;;;;;;;;4997439;28;20054;-88
2021/08/18 06:40:05;;;;;;;6.43;4.95;;;;;;;;;;4999981;28;20420;-93
2021/08/18 06:42:32;;;;;;;9.63;5.45;;;;;;;;;;5000831;28;20010;-91
2021/08/18 06:44:58;;;;;;;5.40;4.90;;;;;;;;;;5019729;28;20018;-85
2021/08/18 06:47:23;;;;;;;7.35;5.30;;;;;;;;;;5003864;28;20022;-87
2021/08/18 06:49:48;;;;;;;6.93;4.77;;;;;;;;;;5000977;28;20116;-87
2021/08/18 06:52:13;;;;;;;5.07;4.43;;;;;;;;;;5019622;28;20252;-88
2021/08/18 06:54:39;;;;;;;5.55;4.78;;;;;;;;;;5010483;28;20639;-89
2021/08/18 06:57:04;;;;;;;5.80;5.25;;;;;;;;;;4999588;28;20023;-89
2021/08/18 06:59:29;;;;;;;7.40;6.70;;;;;;;;;;4998198;28;20018;-89
2021/08/18 07:01:55;;;;;;;10.30;6.78;;;;;;;;;;4998161;28;20023;-88
2021/08/18 07:04:22;;;;;;;7.00;6.03;;;;;;;;;;4998978;28;20027;-89
2021/08/18 07:06:48;;;;;;;7.28;6.55;;;;;;;;;;5000936;28;20260;-86
2021/08/18 07:09:13;;;;;;;10.32;7.72;;;;;;;;;;4996007;28;20026;-88
2021/08/18 07:11:38;;;;;;;7.20;6.43;;;;;;;;;;4996999;28;20040;-85
2021/08/18 07:14:04;;;;;;;6.15;5.65;;;;;;;;;;4996923;28;20069;-83
2021/08/18 07:16:30;;;;;;;5.20;4.70;;;;;;;;;;4997014;28;20018;-86
2021/08/18 07:18:56;;;;;;;4.50;3.78;;;;;;;;;;4996148;28;20037;-84
2021/08/18 07:21:21;;;;;;;3.95;3.55;;;;;;;;;;4996683;28;20022;-81
2021/08/18 07:23:48;;;;;;;5.07;3.67;;;;;;;;;;4994376;28;20074;-87
2021/08/18 07:26:13;;;;;;;4.10;3.75;;;;;;;;;;4992780;28;20015;-86
2021/08/18 07:28:38;;;;;;;3.85;3.50;;;;;;;;;;4992354;28;20096;-86
2021/08/18 07:31:04;;;;;;;3.70;3.40;;;;;;;;;;4993122;28;20018;-88
2021/08/18 07:33:31;;;;;;;5.10;3.42;;;;;;;;;;4992979;28;20026;-85
2021/08/18 07:35:56;;;;;;;3.63;3.30;;;;;;;;;;4992706;28;20018;-87
2021/08/18 07:38:24;;;;;;;3.42;3.13;;;;;;;;;;5004473;28;20356;-83
2021/08/18 07:40:51;;;;;;;4.40;3.33;;;;;;;;;;4998050;28;20188;-89
2021/08/18 07:43:16;;;;;;;4.50;3.47;;;;;;;;;;4990909;28;20047;-82
2021/08/18 07:45:42;;;;;;;4.37;3.97;;;;;;;;;;4995459;28;20041;-85
2021/08/18 07:48:09;;;;;;;4.20;3.80;;;;;;;;;;4996033;28;20270;-85
2021/08/18 07:50:35;;;;;;;4.90;4.22;;;;;;;;;;4994524;28;20038;-80
2021/08/18 07:53:00;;;;;;;5.45;4.47;;;;;;;;;;4995091;28;20033;-79
2021/08/18 07:55:25;;;;;;;5.87;4.00;;;;;;;;;;5000891;28;20025;-79
2021/08/18 07:57:52;;;;;;;5.95;3.72;;;;;;;;;;5005643;28;20636;-79
2021/08/18 08:00:18;;;;;;;4.70;3.70;;;;;;;;;;4995137;28;20022;-83
2021/08/18 08:02:48;;;;;;;6.07;4.07;;;;;;;;;;4995867;28;20409;-84
2021/08/18 08:05:15;;;;;;;3.95;3.53;;;;;;;;;;4996019;28;20025;-84
2021/08/18 08:07:40;;;;;;;5.65;3.45;;;;;;;;;;4995857;28;20117;-83
2021/08/18 08:10:06;;;;;;;4.45;4.03;;;;;;;;;;4994889;28;20097;-83
2021/08/18 08:12:35;;;;;;;4.82;3.83;;;;;;;;;;4995344;28;20114;-84
2021/08/18 08:15:02;;;;;;;4.63;3.40;;;;;;;;;;4995924;28;20097;-85
2021/08/18 08:17:30;;;;;;;4.05;3.10;;;;;;;;;;4977529;28;20440;-83
2021/08/18 08:19:55;;;;;;;3.92;3.40;;;;;;;;;;4995534;28;20037;-83
2021/08/18 08:22:21;;;;;;;3.80;3.50;;;;;;;;;;4994553;28;20031;-82
2021/08/18 08:24:46;;;;;;;4.00;3.58;;;;;;;;;;4978193;28;20262;-86
2021/08/18 08:27:14;;;;;;;5.10;3.72;;;;;;;;;;4994893;28;20022;-83
2021/08/18 08:29:39;;;;;;;4.50;3.83;;;;;;;;;;4994499;28;20050;-82
2021/08/18 08:32:07;;;;;;;4.55;3.58;;;;;;;;;;4995166;28;20400;-82
2021/08/18 08:34:33;;;;;;;3.42;3.13;;;;;;;;;;4994895;28;20385;-90
2021/08/18 08:36:58;;;;;;;4.68;3.30;;;;;;;;;;4981715;28;20168;-88
2021/08/18 08:39:23;;;;;;;2.93;2.73;;;;;;;;;;4994487;28;20194;-84
2021/08/18 08:41:49;;;;;;;3.00;2.80;;;;;;;;;;4995121;28;20372;-82
2021/08/18 08:44:15;;;;;;;2.88;2.60;;;;;;;;;;4995147;28;20775;-92
2021/08/18 08:46:43;;;;;;;3.42;2.25;;;;;;;;;;4995423;28;20049;-85
2021/08/18 08:49:09;;;;;;;2.58;2.10;;;;;;;;;;5002201;28;20030;-87
2021/08/18 08:51:34;;;;;;;3.03;2.17;;;;;;;;;;5014649;28;20018;-92
2021/08/18 08:54:02;;;;;;;2.80;2.40;;;;;;;;;;5014471;28;20018;-83
2021/08/18 08:56:27;;;;;;;3.65;2.50;;;;;;;;;;4989262;28;20061;-87
2021/08/18 08:58:54;;;;;;;2.95;2.53;;;;;;;;;;4994782;28;20057;-89
2021/08/18 09:01:21;;;;;;;5.30;2.50;;;;;;;;;;4991996;28;20028;-84
2021/08/18 09:03:46;;;;;;;2.92;2.55;;;;;;;;;;4993803;28;20022;-82
2021/08/18 09:06:11;;;;;;;5.38;2.80;;;;;;;;;;4994728;28;20088;-75
2021/08/18 09:08:58;;;;;;;3.33;2.15;;;;;;;;;;4994054;28;20078;-87
2021/08/18 09:11:26;;;;;;;2.70;2.35;;;;;;;;;;4993288;28;20026;-85
2021/08/18 09:13:53;;;;;;;3.65;2.78;;;;;;;;;;4995087;28;20034;-82
2021/08/18 09:16:22;;;;;;;4.05;2.60;;;;;;;;;;4995244;28;20083;-81
2021/08/18 09:18:49;;;;;;;4.50;2.13;;;;;;;;;;4995027;28;20342;-83
2021/08/18 09:21:35;;;;;;;2.53;2.33;;;;;;;;;;4995003;28;20018;-89
2021/08/18 09:24:16;;;;;;;3.55;2.25;;;;;;;;;;4995042;28;20037;-86
2021/08/18 09:26:42;;;;;;;3.83;2.40;;;;;;;;;;4994076;28;20030;-77
2021/08/18 09:29:10;;;;;;;5.88;3.30;;;;;;;;;;4993280;28;20065;-87
2021/08/18 09:31:38;;;;;;;4.10;2.75;;;;;;;;;;4977398;28;20433;-82
2021/08/18 09:34:09;;;;;;;3.42;2.83;;;;;;;;;;4993674;28;20022;-83
2021/08/18 09:36:37;;;;;;;3.28;2.85;;;;;;;;;;4994125;28;20523;-80
2021/08/18 09:39:24;;;;;;;2.80;2.60;;;;;;;;;;4993669;28;20165;-81
2021/08/18 09:41:52;;;;;;;2.90;2.70;;;;;;;;;;4974856;28;20019;-82
2021/08/18 09:44:20;;;;;;;4.10;3.20;;;;;;;;;;4974963;28;20034;-82
2021/08/18 09:46:46;;;;;;;4.30;3.40;;;;;;;;;;4993507;28;20105;-81
2021/08/18 09:49:15;;;;;;;6.43;3.45;;;;;;;;;;4993502;28;20026;-86
2021/08/18 09:51:59;;;;;;;4.28;3.78;;;;;;;;;;4993015;28;20033;-75
2021/08/18 09:58:04;;;;;;;6.90;4.28;;;;;;;;;;4990171;28;20240;-74
2021/08/18 10:00:47;;;;;;;4.50;4.10;;;;;;;;;;4993289;28;20022;-74
2021/08/18 10:03:15;;;;;;;5.50;3.80;;;;;;;;;;4992682;28;20022;-85
2021/08/18 10:05:43;;;;;;;4.07;3.67;;;;;;;;;;4974547;28;20039;-83
2021/08/18 10:08:11;;;;;;;4.57;4.10;;;;;;;;;;4990908;28;20475;-82
2021/08/18 10:10:39;;;;;;;4.65;4.25;;;;;;;;;;4989275;28;20022;-82
2021/08/18 10:13:08;;;;;;;4.38;3.95;;;;;;;;;;4990944;28;20077;-83
2021/08/18 10:15:33;;;;;;;4.80;3.70;;;;;;;;;;4988282;28;20034;-79
2021/08/18 10:18:00;;;;;;;5.00;4.50;;;;;;;;;;4990618;28;20348;-78
2021/08/18 10:20:26;;;;;;;6.00;4.68;;;;;;;;;;4995411;28;20476;-78
2021/08/18 10:23:20;;;;;;;5.50;4.38;;;;;;;;;;4989807;28;20030;-78
2021/08/18 10:25:51;;;;;;;6.07;4.65;;;;;;;;;;4987717;28;20035;-78
2021/08/18 10:28:16;;;;;;;5.07;4.68;;;;;;;;;;4982922;28;20043;-79
2021/08/18 10:30:49;;;;;;;5.45;4.80;;;;;;;;;;4976043;28;20468;-83
2021/08/18 10:33:35;;;;;;;5.28;4.78;;;;;;;;;;4993390;28;20069;-83
2021/08/18 10:36:01;;;;;;;5.13;4.63;;;;;;;;;;4988146;28;20050;-83
2021/08/18 10:38:29;;;;;;;5.28;4.78;;;;;;;;;;4992282;28;20065;-85
2021/08/18 10:40:57;;;;;;;6.60;6.00;;;;;;;;;;4993864;28;20019;-85
2021/08/18 10:43:41;;;;;;;5.30;4.80;;;;;;;;;;4976009;28;20018;-87
2021/08/18 10:46:09;;;;;;;4.53;4.10;;;;;;;;;;4987663;28;20528;-86
2021/08/18 10:49:00;;;;;;;3.90;3.40;;;;;;;;;;4996718;28;20422;-87
2021/08/18 10:51:41;;;;;;;2.38;2.15;;;;;;;;;;4996806;28;20088;-83
2021/08/18 10:54:25;;;;;;;2.85;2.15;;;;;;;;;;4997036;28;20102;-83
2021/08/18 10:56:57;;;;;;;2.85;2.28;;;;;;;;;;4996950;28;20497;-84
2021/08/18 10:59:37;;;;;;;1.98;1.80;;;;;;;;;;4995240;28;20041;-82
2021/08/18 11:02:03;;;;;;;2.85;1.75;;;;;;;;;;4996689;28;20015;-81
2021/08/18 11:04:43;;;;;;;1.60;1.45;;;;;;;;;;4996753;28;20334;-81
2021/08/18 11:07:08;;;;;;;1.73;1.63;;;;;;;;;;4996672;28;20023;-83
2021/08/18 11:10:00;;;;;;;1.10;1.00;;;;;;;;;;4996641;28;20034;-85
2021/08/18 11:12:41;;;;;;;2.05;1.30;;;;;;;;;;4992840;28;20038;-82
2021/08/18 11:15:21;;;;;;;1.40;1.30;;;;;;;;;;4991675;28;20022;-81
2021/08/18 11:17:46;;;;;;;2.13;1.73;;;;;;;;;;4993764;28;20038;-80
2021/08/18 11:20:15;;;;;;;1.90;1.80;;;;;;;;;;4996674;28;20014;-83
2021/08/18 11:22:41;;;;;;;1.50;1.35;;;;;;;;;;4996505;28;20022;-81
2021/08/18 11:25:07;;;;;;;3.15;1.48;;;;;;;;;;4996396;28;20033;-82
2021/08/18 11:27:32;;;;;;;1.40;1.27;;;;;;;;;;4996408;28;20023;-80
2021/08/18 11:29:57;;;;;;;3.30;1.17;;;;;;;;;;4996353;28;20120;-81
2021/08/18 11:32:26;;;;;;;3.78;1.88;;;;;;;;;;4996043;28;20030;-76
2021/08/18 11:34:52;;;;;;;4.88;1.70;;;;;;;;;;4996119;28;20092;-77
2021/08/18 11:37:17;;;;;;;2.20;1.40;;;;;;;;;;4995840;28;20038;-80
2021/08/18 11:39:48;;;;;;;1.73;1.40;;;;;;;;;;4996068;28;20032;-80
2021/08/18 11:42:17;;;;;;;2.47;1.42;;;;;;;;;;4996025;28;20288;-80
2021/08/18 11:44:44;;;;;;;1.20;1.10;;;;;;;;;;4995666;28;20030;-78
2021/08/18 11:47:11;;;;;;;1.40;1.30;;;;;;;;;;4994369;28;20349;-84
2021/08/18 11:49:36;;;;;;;1.17;1.13;;;;;;;;;;4994952;28;20026;-79
2021/08/18 11:52:06;;;;;;;1.58;1.48;;;;;;;;;;4983821;28;20121;-82
2021/08/18 11:54:34;;;;;;;1.92;1.30;;;;;;;;;;4987422;28;20029;-89
2021/08/18 11:57:03;;;;;;;1.70;1.35;;;;;;;;;;4995348;28;20058;-83
2021/08/18 11:59:31;;;;;;;1.67;1.30;;;;;;;;;;4995504;28;20022;-82
2021/08/18 12:01:56;;;;;;;1.25;1.10;;;;;;;;;;4979523;28;20074;-81
2021/08/18 12:04:22;;;;;;;2.30;1.40;;;;;;;;;;4984291;28;20476;-83
2021/08/18 12:07:03;;;;;;;1.60;0.90;;;;;;;;;;4995364;28;20018;-80
2021/08/18 12:09:28;;;;;;;1.15;1.00;;;;;;;;;;4961639;28;20449;-79
2021/08/18 12:12:06;;;;;;;1.52;1.25;;;;;;;;;;4993503;28;20026;-77
2021/08/18 12:14:45;;;;;;;1.33;1.20;;;;;;;;;;4992678;28;20018;-77
2021/08/18 12:17:10;;;;;;;2.28;1.23;;;;;;;;;;4978711;28;20029;-77
2021/08/18 12:19:39;;;;;;;1.38;1.20;;;;;;;;;;4994893;28;20012;-78
2021/08/18 12:22:07;;;;;;;2.45;1.60;;;;;;;;;;4995343;28;20021;-79
2021/08/18 12:24:32;;;;;;;1.48;1.10;;;;;;;;;;4989483;28;20026;-78
2021/08/18 12:27:05;;;;;;;2.22;1.50;;;;;;;;;;4995488;28;20356;-77
2021/08/18 12:29:35;;;;;;;1.27;1.17;;;;;;;;;;4977593;28;20046;-75
2021/08/18 12:32:04;;;;;;;3.58;1.48;;;;;;;;;;4995280;28;20042;-77
2021/08/18 12:34:30;;;;;;;1.27;1.17;;;;;;;;;;4989727;28;20034;-83
2021/08/18 12:36:59;;;;;;;1.50;1.40;;;;;;;;;;4991546;28;20015;-86
2021/08/18 12:39:51;;;;;;;0.93;0.90;;;;;;;;;;4993702;28;20018;-82
2021/08/18 12:42:21;;;;;;;1.40;1.30;;;;;;;;;;4990475;28;20038;-82
2021/08/18 12:44:57;;;;;;;2.97;2.22;;;;;;;;;;4988150;28;20457;-81
2021/08/18 12:47:31;;;;;;;2.85;2.40;;;;;;;;;;4990725;28;20050;-79
2021/08/18 12:50:00;;;;;;;3.58;2.80;;;;;;;;;;4991019;28;20036;-80
2021/08/18 12:52:28;;;;;;;3.20;2.90;;;;;;;;;;4973593;28;20050;-82
2021/08/18 12:54:54;;;;;;;3.22;2.92;;;;;;;;;;4992168;28;20119;-82
2021/08/18 12:57:19;;;;;;;3.40;2.67;;;;;;;;;;4991031;28;20019;-82
2021/08/18 12:59:47;;;;;;;3.60;2.65;;;;;;;;;;4992730;28;20357;-83
2021/08/18 13:02:14;;;;;;;4.45;2.53;;;;;;;;;;4978107;28;20416;-80
2021/08/18 13:04:40;;;;;;;4.88;3.45;;;;;;;;;;4990726;28;20018;-81
2021/08/18 13:07:05;;;;;;;4.73;2.60;;;;;;;;;;4993754;28;20029;-78
2021/08/18 13:09:31;;;;;;;3.47;3.15;;;;;;;;;;4994657;28;20312;-80
2021/08/18 13:11:57;;;;;;;3.38;2.95;;;;;;;;;;4993131;28;20457;-79
2021/08/18 13:14:22;;;;;;;4.70;3.60;;;;;;;;;;4975170;28;20022;-80
2021/08/18 13:16:48;;;;;;;4.68;3.80;;;;;;;;;;4994060;28;20085;-78
2021/08/18 13:19:18;;;;;;;8.40;4.80;;;;;;;;;;4990817;28;20160;-82
2021/08/18 13:21:43;;;;;;;5.53;3.92;;;;;;;;;;4985556;28;20143;-78
2021/08/18 13:24:11;;;;;;;4.55;4.13;;;;;;;;;;4982018;28;20015;-78
2021/08/18 13:26:43;;;;;;;5.10;4.60;;;;;;;;;;4992116;28;20425;-78
2021/08/18 13:29:10;;;;;;;5.53;4.55;;;;;;;;;;4986970;28;20093;-78
2021/08/18 13:31:36;;;;;;;5.22;4.70;;;;;;;;;;4988688;28;20030;-82
2021/08/18 13:34:02;;;;;;;5.05;4.10;;;;;;;;;;4994899;28;20026;-83
2021/08/18 13:36:27;;;;;;;4.90;4.40;;;;;;;;;;4991896;28;20479;-79
2021/08/18 13:38:53;;;;;;;5.72;4.65;;;;;;;;;;4991820;28;20015;-80
2021/08/18 13:41:23;;;;;;;7.82;4.90;;;;;;;;;;4989012;28;20444;-79
2021/08/18 13:43:48;;;;;;;5.05;4.55;;;;;;;;;;4987803;28;20027;-78
2021/08/18 13:46:13;;;;;;;4.57;4.18;;;;;;;;;;4988637;28;20397;-80
2021/08/18 13:48:39;;;;;;;5.15;4.65;;;;;;;;;;4988697;28;20504;-80
2021/08/18 13:51:05;;;;;;;6.28;5.20;;;;;;;;;;4976240;28;20022;-79
2021/08/18 13:53:32;;;;;;;4.25;3.90;;;;;;;;;;4989919;28;20030;-80
2021/08/18 13:55:59;;;;;;;4.18;3.70;;;;;;;;;;4994492;28;20034;-80
2021/08/18 13:58:25;;;;;;;6.43;3.10;;;;;;;;;;4994250;28;20026;-81
2021/08/18 14:00:52;;;;;;;3.05;2.72;;;;;;;;;;4994273;28;20069;-80
2021/08/18 14:03:20;;;;;;;3.40;2.78;;;;;;;;;;4994414;28;20476;-80
2021/08/18 14:05:50;;;;;;;3.40;2.33;;;;;;;;;;4994213;28;20467;-81
2021/08/18 14:08:17;;;;;;;3.85;1.80;;;;;;;;;;4993829;28;20417;-80
2021/08/18 14:10:43;;;;;;;2.13;1.77;;;;;;;;;;4992529;28;20101;-85
2021/08/18 14:13:09;;;;;;;2.05;1.70;;;;;;;;;;4993436;28;20126;-79
2021/08/18 14:15:37;;;;;;;2.75;1.65;;;;;;;;;;4993922;28;20073;-75
2021/08/18 14:18:02;;;;;;;2.67;1.80;;;;;;;;;;4998214;28;20081;-74
2021/08/18 14:20:30;;;;;;;2.13;1.77;;;;;;;;;;4998195;28;20019;-75
2021/08/18 14:22:55;;;;;;;1.63;1.52;;;;;;;;;;4997915;28;20433;-75
2021/08/18 14:25:26;;;;;;;5.70;1.80;;;;;;;;;;4997986;28;20072;-76
2021/08/18 14:27:51;;;;;;;3.22;1.55;;;;;;;;;;4997650;28;20293;-75
2021/08/18 14:30:19;;;;;;;2.20;1.53;;;;;;;;;;4997438;28;20488;-75
2021/08/18 14:32:49;;;;;;;2.95;1.38;;;;;;;;;;4997799;28;20739;-75
2021/08/18 14:35:14;;;;;;;1.58;1.42;;;;;;;;;;4996927;28;20054;-75
2021/08/18 14:37:41;;;;;;;2.58;1.38;;;;;;;;;;4997839;28;20112;-75
2021/08/18 14:40:07;;;;;;;1.67;1.20;;;;;;;;;;4997859;28;20026;-75
2021/08/18 14:42:36;;;;;;;2.13;1.20;;;;;;;;;;4997926;28;20041;-75
2021/08/18 14:45:04;;;;;;;3.55;1.30;;;;;;;;;;4997744;28;20011;-76
2021/08/18 14:47:30;;;;;;;2.67;1.70;;;;;;;;;;4996699;28;20018;-75
2021/08/18 14:49:55;;;;;;;1.52;1.42;;;;;;;;;;4986336;28;20404;-75